createdAt,value
2023-03-15T00:00:42.712Z,97669.16
2023-03-15T00:03:09.526Z,97667.84
2023-03-15T00:05:35.847Z,97670.03
2023-03-15T00:08:04.393Z,97681.81
2023-03-15T00:10:30.901Z,97679.41
2023-03-15T00:12:57.219Z,97677.81
2023-03-15T00:15:23.530Z,97688.81
2023-03-15T00:17:49.839Z,97689.91
2023-03-15T00:20:16.257Z,97694.22
2023-03-15T00:22:42.819Z,97701.22
2023-03-15T00:25:09.368Z,97698.34
2023-03-15T00:27:35.690Z,97698.91
2023-03-15T00:30:02.000Z,97708.28
2023-03-15T00:32:28.847Z,97698.19
2023-03-15T00:34:55.536Z,97705.97
2023-03-15T00:37:21.851Z,97712.16
2023-03-15T00:39:48.237Z,97712.47
2023-03-15T00:42:17.481Z,97714.88
2023-03-15T00:44:44.300Z,97717.03
2023-03-15T00:47:11.130Z,97713.88
2023-03-15T00:49:37.527Z,97725.13
2023-03-15T00:52:04.082Z,97723.53
2023-03-15T00:54:33.363Z,97730.75
2023-03-15T00:57:00.199Z,97719.25
2023-03-15T00:59:27.905Z,97727.00
2023-03-15T01:01:54.278Z,97721.91
2023-03-15T01:04:21.047Z,97727.84
2023-03-15T01:06:47.371Z,97720.09
2023-03-15T01:09:13.717Z,97728.41
2023-03-15T01:11:40.148Z,97720.97
2023-03-15T01:14:08.761Z,97715.13
2023-03-15T01:16:35.127Z,97714.16
2023-03-15T01:19:01.475Z,97721.88
2023-03-15T01:21:27.779Z,97718.22
2023-03-15T01:23:54.193Z,97722.53
2023-03-15T01:26:20.537Z,97718.53
2023-03-15T01:28:47.173Z,97719.91
2023-03-15T01:31:20.614Z,97730.59
2023-03-15T01:33:46.972Z,97729.50
2023-03-15T01:36:13.283Z,97728.91
2023-03-15T01:38:39.604Z,97734.00
2023-03-15T01:41:05.929Z,97734.78
2023-03-15T01:43:32.309Z,97727.56
2023-03-15T01:46:01.682Z,97735.34
2023-03-15T01:48:29.990Z,97727.09
2023-03-15T01:50:56.309Z,97733.81
2023-03-15T01:53:22.830Z,97732.50
2023-03-15T01:55:49.189Z,97744.53
2023-03-15T01:58:15.526Z,97737.63
2023-03-15T02:00:41.880Z,97737.38
2023-03-15T02:03:17.074Z,97746.47
2023-03-15T02:05:46.968Z,97753.94
2023-03-15T02:08:13.429Z,97745.44
2023-03-15T02:10:41.523Z,97752.91
2023-03-15T02:13:07.917Z,97755.06
2023-03-15T02:15:34.241Z,97756.41
2023-03-15T02:18:00.587Z,97752.75
2023-03-15T02:20:42.063Z,97750.59
2023-03-15T02:23:09.126Z,97754.59
2023-03-15T02:25:35.405Z,97763.97
2023-03-15T02:28:01.898Z,97758.09
2023-03-15T02:30:28.223Z,97764.53
2023-03-15T02:32:54.873Z,97765.06
2023-03-15T02:35:28.024Z,97755.78
2023-03-15T02:37:54.350Z,97760.59
2023-03-15T02:40:21.382Z,97751.78
2023-03-15T02:42:48.045Z,97758.72
2023-03-15T02:45:14.353Z,97759.78
2023-03-15T02:47:40.708Z,97765.41
2023-03-15T02:50:08.192Z,97762.75
2023-03-15T02:52:34.753Z,97768.38
2023-03-15T02:55:02.144Z,97765.97
2023-03-15T02:57:28.753Z,97765.16
2023-03-15T02:59:55.530Z,97771.06
2023-03-15T03:02:21.948Z,97776.66
2023-03-15T03:04:48.317Z,97778.81
2023-03-15T03:07:14.649Z,97774.00
2023-03-15T03:09:40.966Z,97778.28
2023-03-15T03:12:07.396Z,97782.25
2023-03-15T03:14:33.955Z,97790.78
2023-03-15T03:17:01.499Z,97791.81
2023-03-15T03:19:27.912Z,97803.91
2023-03-15T03:21:54.426Z,97814.06
2023-03-15T03:24:20.791Z,97812.75
2023-03-15T03:26:47.125Z,97817.28
2023-03-15T03:29:16.621Z,97825.28
2023-03-15T03:31:43.953Z,97822.63
2023-03-15T03:34:12.113Z,97822.13
2023-03-15T03:36:38.476Z,97834.91
2023-03-15T03:39:04.844Z,97841.56
2023-03-15T03:41:31.363Z,97838.63
2023-03-15T03:43:58.051Z,97842.09
2023-03-15T03:46:24.659Z,97849.06
2023-03-15T03:48:51.744Z,97850.09
2023-03-15T03:51:18.728Z,97845.34
2023-03-15T03:53:45.059Z,97855.22
2023-03-15T03:56:11.664Z,97852.00
2023-03-15T03:58:38.495Z,97858.69
2023-03-15T04:01:05.027Z,97865.91
2023-03-15T04:03:31.588Z,97869.88
2023-03-15T04:05:58.518Z,97869.38
2023-03-15T04:08:25.552Z,97870.72
2023-03-15T04:10:55.175Z,97882.16
2023-03-15T04:13:21.500Z,97882.72
2023-03-15T04:15:48.100Z,97889.91
2023-03-15T04:18:14.533Z,97899.75
2023-03-15T04:20:46.725Z,97895.75
2023-03-15T04:23:13.752Z,97907.47
2023-03-15T04:25:40.062Z,97905.06
2023-03-15T04:28:10.533Z,97906.94
2023-03-15T04:30:36.862Z,97914.69
2023-03-15T04:33:03.590Z,97918.41
2023-03-15T04:35:30.624Z,97906.69
2023-03-15T04:37:59.912Z,97914.97
2023-03-15T04:40:29.764Z,97922.44
2023-03-15T04:42:56.192Z,97929.88
2023-03-15T04:45:25.899Z,97928.56
2023-03-15T04:47:52.319Z,97921.09
2023-03-15T04:50:18.651Z,97925.13
2023-03-15T04:52:44.998Z,97920.03
2023-03-15T04:55:11.314Z,97937.88
2023-03-15T04:57:37.633Z,97932.56
2023-03-15T05:00:10.232Z,97935.78
2023-03-15T05:02:39.980Z,97941.34
2023-03-15T05:05:06.570Z,97938.97
2023-03-15T05:07:35.656Z,97946.41
2023-03-15T05:10:01.962Z,97945.09
2023-03-15T05:12:28.602Z,97947.25
2023-03-15T05:14:54.973Z,97939.50
2023-03-15T05:17:22.457Z,97946.69
2023-03-15T05:19:49.174Z,97953.09
2023-03-15T05:22:15.488Z,97962.16
2023-03-15T05:24:41.807Z,97960.00
2023-03-15T05:27:08.112Z,97968.00
2023-03-15T05:29:34.439Z,97964.25
2023-03-15T05:32:04.264Z,97963.22
2023-03-15T05:34:32.214Z,97975.19
2023-03-15T05:36:58.884Z,97981.06
2023-03-15T05:39:25.486Z,97979.47
2023-03-15T05:41:51.804Z,97984.78
2023-03-15T05:44:18.132Z,97983.44
2023-03-15T05:46:44.778Z,97984.00
2023-03-15T05:49:11.094Z,97990.66
2023-03-15T05:51:37.416Z,97986.66
2023-03-15T05:54:03.758Z,97995.97
2023-03-15T05:56:30.073Z,98003.72
2023-03-15T05:58:56.406Z,98006.63
2023-03-15T06:01:22.930Z,98007.69
2023-03-15T06:03:49.366Z,98023.66
2023-03-15T06:06:16.017Z,98027.41
2023-03-15T06:08:42.349Z,98034.31
2023-03-15T06:11:08.656Z,98036.47
2023-03-15T06:13:34.972Z,98034.84
2023-03-15T06:16:01.279Z,98039.63
2023-03-15T06:18:27.910Z,98043.88
2023-03-15T06:20:54.221Z,98044.16
2023-03-15T06:23:20.544Z,98054.03
2023-03-15T06:25:47.034Z,98056.13
2023-03-15T06:28:13.383Z,98065.97
2023-03-15T06:30:40.898Z,98072.09
2023-03-15T06:33:07.260Z,98075.84
2023-03-15T06:35:33.631Z,98085.69
2023-03-15T06:38:00.002Z,98087.56
2023-03-15T06:40:26.341Z,98088.63
2023-03-15T06:42:52.880Z,98092.31
2023-03-15T06:45:19.189Z,98097.13
2023-03-15T06:47:45.512Z,98103.50
2023-03-15T06:50:11.840Z,98113.59
2023-03-15T06:52:38.705Z,98122.66
2023-03-15T06:55:05.341Z,98122.94
2023-03-15T06:57:31.718Z,98125.31
2023-03-15T06:59:58.036Z,98123.16
2023-03-15T07:02:24.426Z,98133.00
2023-03-15T07:04:50.854Z,98135.66
2023-03-15T07:07:17.209Z,98134.63
2023-03-15T07:09:43.882Z,98139.97
2023-03-15T07:12:10.658Z,98139.13
2023-03-15T07:14:37.001Z,98136.75
2023-03-15T07:17:03.371Z,98142.88
2023-03-15T07:19:29.694Z,98146.09
2023-03-15T07:21:56.479Z,98146.09
2023-03-15T07:24:22.861Z,98151.66
2023-03-15T07:26:50.439Z,98148.75
2023-03-15T07:29:18.431Z,98161.53
2023-03-15T07:31:44.747Z,98162.06
2023-03-15T07:34:11.347Z,98158.31
2023-03-15T07:36:37.740Z,98160.47
2023-03-15T07:39:05.141Z,98168.69
2023-03-15T07:41:31.456Z,98179.34
2023-03-15T07:43:58.605Z,98178.53
2023-03-15T07:46:25.015Z,98184.44
2023-03-15T07:48:51.355Z,98180.16
2023-03-15T07:51:17.887Z,98189.00
2023-03-15T07:53:44.224Z,98176.53
2023-03-15T07:56:10.795Z,98190.09
2023-03-15T07:58:37.193Z,98193.28
2023-03-15T08:01:03.512Z,98191.69
2023-03-15T08:03:29.917Z,98199.41
2023-03-15T08:05:59.173Z,98201.56
2023-03-15T08:08:26.222Z,98203.25
2023-03-15T08:10:52.576Z,98204.03
2023-03-15T08:13:18.887Z,98212.03
2023-03-15T08:15:45.664Z,98210.16
2023-03-15T08:18:11.991Z,98220.56
2023-03-15T08:20:38.320Z,98225.59
2023-03-15T08:23:04.667Z,98229.06
2023-03-15T08:25:31.072Z,98233.63
2023-03-15T08:27:57.407Z,98236.31
2023-03-15T08:30:23.851Z,98237.59
2023-03-15T08:32:51.217Z,98243.47
2023-03-15T08:35:17.679Z,98253.34
2023-03-15T08:37:47.751Z,98256.78
2023-03-15T08:42:40.426Z,98273.31
2023-03-15T08:45:07.706Z,98270.91
2023-03-15T08:47:35.268Z,98275.69
2023-03-15T08:50:05.971Z,98270.88
2023-03-15T08:52:32.304Z,98280.72
2023-03-15T08:54:58.644Z,98290.59
2023-03-15T08:57:25.882Z,98292.72
2023-03-15T08:59:52.615Z,98304.75
2023-03-15T09:02:18.960Z,98301.28
2023-03-15T09:04:45.441Z,98303.16
2023-03-15T09:07:12.484Z,98317.06
2023-03-15T09:09:38.832Z,98309.31
2023-03-15T09:12:05.212Z,98314.97
2023-03-15T09:14:31.643Z,98317.38
2023-03-15T09:16:57.972Z,98321.91
2023-03-15T09:19:24.363Z,98323.25
2023-03-15T09:21:51.182Z,98314.72
2023-03-15T09:24:19.474Z,98328.03
2023-03-15T09:26:45.792Z,98333.13
2023-03-15T09:29:12.105Z,98332.06
2023-03-15T09:31:38.486Z,98328.59
2023-03-15T09:34:05.710Z,98331.50
2023-03-15T09:36:32.410Z,98341.91
2023-03-15T09:38:59.015Z,98344.34
2023-03-15T09:41:42.188Z,98344.88
2023-03-15T09:44:11.943Z,98341.66
2023-03-15T09:46:42.102Z,98355.53
2023-03-15T09:49:10.824Z,98357.66
2023-03-15T09:51:50.931Z,98364.59
2023-03-15T09:54:24.775Z,98365.41
2023-03-15T09:56:58.228Z,98360.59
2023-03-15T09:59:38.899Z,98363.78
2023-03-15T10:02:24.606Z,98369.94
2023-03-15T10:04:52.251Z,98369.16
2023-03-15T10:07:18.628Z,98365.94
2023-03-15T10:09:44.968Z,98367.53
2023-03-15T10:12:25.236Z,98370.72
2023-03-15T10:14:56.630Z,98362.69
2023-03-15T10:17:37.834Z,98363.78
2023-03-15T10:20:10.312Z,98372.56
2023-03-15T10:22:52.003Z,98373.66
2023-03-15T10:25:28.209Z,98375.28
2023-03-15T10:28:13.903Z,98373.94
2023-03-15T10:30:40.493Z,98376.88
2023-03-15T10:33:12.283Z,98374.47
2023-03-15T10:35:38.638Z,98374.47
2023-03-15T10:38:18.202Z,98370.19
2023-03-15T10:40:48.835Z,98374.75
2023-03-15T10:43:18.211Z,98369.41
2023-03-15T10:46:00.194Z,98370.75
2023-03-15T10:48:29.837Z,98376.59
2023-03-15T10:50:57.248Z,98376.09
2023-03-15T10:53:26.877Z,98376.34
2023-03-15T10:56:00.380Z,98375.53
2023-03-15T10:58:33.084Z,98369.16
2023-03-15T11:01:04.053Z,98373.94
2023-03-15T11:03:31.189Z,98380.34
2023-03-15T11:05:58.282Z,98383.00
2023-03-15T11:08:25.558Z,98376.09
2023-03-15T11:10:58.874Z,98387.56
2023-03-15T11:13:28.620Z,98407.03
2023-03-15T11:16:05.612Z,98405.94
2023-03-15T11:18:33.442Z,98403.25
2023-03-15T11:20:59.774Z,98405.63
2023-03-15T11:23:27.335Z,98405.91
2023-03-15T11:25:54.244Z,98404.59
2023-03-15T11:28:21.861Z,98400.91
2023-03-15T11:30:48.688Z,98408.09
2023-03-15T11:33:44.547Z,98407.31
2023-03-15T11:36:17.668Z,98405.16
2023-03-15T11:38:44.453Z,98410.50
2023-03-15T11:41:19.165Z,98409.94
2023-03-15T11:43:45.679Z,98408.34
2023-03-15T11:46:15.052Z,98411.31
2023-03-15T11:48:47.084Z,98405.66
2023-03-15T11:51:13.395Z,98417.44
2023-03-15T11:53:47.429Z,98416.34
2023-03-15T11:56:20.936Z,98419.03
2023-03-15T11:59:02.229Z,98422.22
2023-03-15T12:01:28.550Z,98423.59
2023-03-15T12:04:15.552Z,98434.53
2023-03-15T12:06:42.125Z,98420.38
2023-03-15T12:09:26.965Z,98431.59
2023-03-15T12:14:28.071Z,98436.66
2023-03-15T12:16:57.386Z,98428.09
2023-03-15T12:19:23.722Z,98430.25
2023-03-15T12:21:50.551Z,98435.88
2023-03-15T12:24:21.623Z,98431.03
2023-03-15T12:26:58.274Z,98434.00
2023-03-15T12:29:25.860Z,98428.13
2023-03-15T12:31:53.582Z,98430.50
2023-03-15T12:34:38.846Z,98431.31
2023-03-15T12:37:06.477Z,98430.25
2023-03-15T12:39:40.234Z,98423.59
2023-03-15T12:42:06.671Z,98425.16
2023-03-15T12:44:32.947Z,98426.78
2023-03-15T12:46:59.801Z,98436.38
2023-03-15T12:49:26.044Z,98424.91
2023-03-15T12:52:01.205Z,98431.56
2023-03-15T12:54:31.826Z,98439.06
2023-03-15T12:56:59.166Z,98438.00
2023-03-15T12:59:34.606Z,98437.47
2023-03-15T13:02:01.421Z,98449.22
2023-03-15T13:04:28.650Z,98451.88
2023-03-15T13:07:02.735Z,98445.47
2023-03-15T13:09:28.988Z,98447.06
2023-03-15T13:12:05.114Z,98439.31
2023-03-15T13:14:33.555Z,98440.38
2023-03-15T13:17:06.461Z,98450.53
2023-03-15T13:19:36.217Z,98449.19
2023-03-15T13:22:02.757Z,98449.19
2023-03-15T13:24:40.065Z,98458.81
2023-03-15T13:27:09.165Z,98470.28
2023-03-15T13:29:35.475Z,98458.53
2023-03-15T13:32:01.749Z,98472.13
2023-03-15T13:34:30.817Z,98474.81
2023-03-15T13:36:57.660Z,98492.69
2023-03-15T13:39:24.256Z,98482.03
2023-03-15T13:41:56.105Z,98490.28
2023-03-15T13:44:23.600Z,98501.50
2023-03-15T13:46:50.037Z,98511.38
2023-03-15T13:49:16.385Z,98495.91
2023-03-15T13:51:42.789Z,98496.69
2023-03-15T13:54:19.147Z,98500.72
2023-03-15T13:57:05.134Z,98504.19
2023-03-15T14:00:00.954Z,98501.78
2023-03-15T14:02:35.263Z,98505.50
2023-03-15T14:05:03.076Z,98509.25
2023-03-15T14:07:29.946Z,98507.66
2023-03-15T14:10:09.367Z,98510.59
2023-03-15T14:12:35.746Z,98511.91
2023-03-15T14:15:02.061Z,98516.44
2023-03-15T14:17:29.084Z,98520.97
2023-03-15T14:19:56.825Z,98523.66
2023-03-15T14:22:23.148Z,98522.31
2023-03-15T14:24:50.185Z,98524.97
2023-03-15T14:27:24.729Z,98514.84
2023-03-15T14:29:50.975Z,98514.03
2023-03-15T14:32:24.619Z,98516.94
2023-03-15T14:34:51.009Z,98511.59
2023-03-15T14:37:37.619Z,98510.75
2023-03-15T14:40:15.765Z,98517.44
2023-03-15T14:42:42.964Z,98522.78
2023-03-15T14:45:09.461Z,98520.66
2023-03-15T14:47:48.606Z,98515.84
2023-03-15T14:50:21.577Z,98518.75
2023-03-15T14:52:49.050Z,98521.94
2023-03-15T14:55:16.448Z,98521.41
2023-03-15T14:57:42.761Z,98518.44
2023-03-15T15:00:13.633Z,98523.78
2023-03-15T15:02:40.126Z,98530.97
2023-03-15T15:05:16.183Z,98532.84
2023-03-15T15:07:42.769Z,98536.03
2023-03-15T15:10:09.508Z,98536.56
2023-03-15T15:12:36.077Z,98543.50
2023-03-15T15:15:05.879Z,98554.16
2023-03-15T15:17:32.188Z,98553.88
2023-03-15T15:19:58.517Z,98540.25
2023-03-15T15:22:24.891Z,98554.13
2023-03-15T15:24:51.498Z,98553.03
2023-03-15T15:27:17.828Z,98551.69
2023-03-15T15:29:44.829Z,98552.22
2023-03-15T15:32:11.154Z,98555.13
2023-03-15T15:34:37.529Z,98556.97
2023-03-15T15:37:04.550Z,98552.97
2023-03-15T15:39:30.873Z,98555.66
2023-03-15T15:41:57.205Z,98558.56
2023-03-15T15:44:25.434Z,98549.22
2023-03-15T15:46:51.846Z,98552.13
2023-03-15T15:49:19.399Z,98555.34
2023-03-15T15:51:46.105Z,98553.69
2023-03-15T15:54:13.611Z,98558.50
2023-03-15T15:56:40.145Z,98557.97
2023-03-15T15:59:06.749Z,98556.34
2023-03-15T16:01:33.224Z,98559.53
2023-03-15T16:04:00.156Z,98560.59
2023-03-15T16:06:27.161Z,98568.59
2023-03-15T16:08:53.789Z,98566.44
2023-03-15T16:11:20.121Z,98561.91
2023-03-15T16:13:46.524Z,98556.28
2023-03-15T16:16:14.185Z,98560.28
2023-03-15T16:18:40.531Z,98568.50
2023-03-15T16:21:06.848Z,98567.19
2023-03-15T16:23:33.157Z,98562.88
2023-03-15T16:25:59.486Z,98571.41
2023-03-15T16:28:25.800Z,98579.88
2023-03-15T16:30:52.174Z,98579.34
2023-03-15T16:33:19.291Z,98573.44
2023-03-15T16:35:45.726Z,98581.69
2023-03-15T16:38:13.560Z,98586.19
2023-03-15T16:40:40.256Z,98584.59
2023-03-15T16:43:08.584Z,98591.06
2023-03-15T16:45:34.982Z,98595.28
2023-03-15T16:48:01.569Z,98590.69
2023-03-15T16:50:28.168Z,98595.09
2023-03-15T16:52:54.902Z,98599.19
2023-03-15T16:55:24.830Z,98583.75
2023-03-15T16:57:51.163Z,98603.53
2023-03-15T17:00:18.194Z,98601.97
2023-03-15T17:02:48.177Z,98607.88
2023-03-15T17:05:19.742Z,98603.09
2023-03-15T17:07:49.465Z,98607.91
2023-03-15T17:10:23.151Z,98614.84
2023-03-15T17:12:50.704Z,98618.31
2023-03-15T17:15:18.042Z,98616.19
2023-03-15T17:17:44.390Z,98624.19
2023-03-15T17:20:12.724Z,98619.66
2023-03-15T17:22:41.879Z,98619.38
2023-03-15T17:25:08.266Z,98626.88
2023-03-15T17:27:35.596Z,98632.78
2023-03-15T17:30:01.951Z,98631.41
2023-03-15T17:32:29.097Z,98636.75
2023-03-15T17:34:58.756Z,98642.38
2023-03-15T17:37:25.084Z,98638.09
2023-03-15T17:39:51.393Z,98642.38
2023-03-15T17:42:17.717Z,98645.03
2023-03-15T17:44:44.028Z,98640.50
2023-03-15T17:47:13.345Z,98645.56
2023-03-15T17:49:39.725Z,98645.56
2023-03-15T17:52:10.996Z,98642.66
2023-03-15T17:54:37.310Z,98645.56
2023-03-15T17:57:03.790Z,98648.78
2023-03-15T17:59:30.107Z,98642.63
2023-03-15T18:01:56.433Z,98644.75
2023-03-15T18:04:23.467Z,98646.91
2023-03-15T18:06:49.838Z,98651.47
2023-03-15T18:09:16.233Z,98652.22
2023-03-15T18:11:42.698Z,98654.09
2023-03-15T18:14:13.398Z,98656.25
2023-03-15T18:16:40.014Z,98649.56
2023-03-15T18:19:06.368Z,98653.84
2023-03-15T18:21:32.720Z,98657.56
2023-03-15T18:23:59.028Z,98657.56
2023-03-15T18:26:25.345Z,98663.97
2023-03-15T18:28:51.705Z,98656.25
2023-03-15T18:31:19.077Z,98669.09
2023-03-15T18:33:45.437Z,98670.94
2023-03-15T18:36:11.788Z,98668.53
2023-03-15T18:38:38.688Z,98668.25
2023-03-15T18:41:06.219Z,98673.06
2023-03-15T18:43:32.526Z,98676.28
2023-03-15T18:45:58.902Z,98667.22
2023-03-15T18:48:39.656Z,98658.91
2023-03-15T18:51:09.061Z,98670.44
2023-03-15T18:53:35.387Z,98669.09
2023-03-15T18:56:01.702Z,98665.09
2023-03-15T18:58:28.037Z,98666.97
2023-03-15T19:00:54.591Z,98670.97
2023-03-15T19:03:21.026Z,98671.75
2023-03-15T19:05:47.439Z,98673.09
2023-03-15T19:08:13.765Z,98668.84
2023-03-15T19:10:40.065Z,98672.31
2023-03-15T19:13:06.403Z,98682.47
2023-03-15T19:15:32.969Z,98671.78
2023-03-15T19:17:59.321Z,98673.13
2023-03-15T19:20:26.457Z,98678.22
2023-03-15T19:22:52.828Z,98673.16
2023-03-15T19:25:19.172Z,98679.28
2023-03-15T19:27:45.548Z,98687.31
2023-03-15T19:30:14.305Z,98687.03
2023-03-15T19:32:42.645Z,98686.50
2023-03-15T19:35:09.157Z,98688.38
2023-03-15T19:37:35.736Z,98689.16
2023-03-15T19:40:02.143Z,98705.22
2023-03-15T19:42:28.445Z,98695.34
2023-03-15T19:44:54.759Z,98703.06
2023-03-15T19:47:21.086Z,98701.47
2023-03-15T19:49:47.443Z,98701.75
2023-03-15T19:52:15.867Z,98698.28
2023-03-15T19:54:42.174Z,98695.88
2023-03-15T19:57:08.481Z,98703.09
2023-03-15T19:59:39.752Z,98707.38
2023-03-15T20:02:06.899Z,98715.09
2023-03-15T20:04:33.445Z,98708.44
2023-03-15T20:06:59.763Z,98703.09
2023-03-15T20:09:26.078Z,98706.84
2023-03-15T20:11:52.394Z,98712.19
2023-03-15T20:14:20.588Z,98710.31
2023-03-15T20:16:46.901Z,98712.72
2023-03-15T20:19:13.210Z,98712.16
2023-03-15T20:21:39.537Z,98711.88
2023-03-15T20:24:07.739Z,98719.06
2023-03-15T20:26:34.047Z,98720.94
2023-03-15T20:29:01.147Z,98722.84
2023-03-15T20:31:27.828Z,98728.16
2023-03-15T20:33:54.233Z,98726.31
2023-03-15T20:36:21.774Z,98735.13
2023-03-15T20:38:48.106Z,98737.53
2023-03-15T20:41:14.573Z,98739.69
2023-03-15T20:43:41.250Z,98742.38
2023-03-15T20:46:07.643Z,98744.78
2023-03-15T20:48:34.987Z,98748.78
2023-03-15T20:51:04.089Z,98744.75
2023-03-15T20:53:33.961Z,98747.41
2023-03-15T20:56:00.616Z,98750.66
2023-03-15T20:58:26.958Z,98742.88
2023-03-15T21:01:02.558Z,98752.53
2023-03-15T21:03:31.485Z,98755.50
2023-03-15T21:05:57.881Z,98746.69
2023-03-15T21:08:24.213Z,98747.47
2023-03-15T21:10:50.540Z,98750.16
2023-03-15T21:13:17.280Z,98738.88
2023-03-15T21:15:46.848Z,98742.63
2023-03-15T21:18:16.731Z,98743.16
2023-03-15T21:20:43.068Z,98732.22
2023-03-15T21:23:09.428Z,98743.19
2023-03-15T21:25:35.746Z,98731.16
2023-03-15T21:28:02.115Z,98735.97
2023-03-15T21:30:28.420Z,98736.50
2023-03-15T21:32:54.755Z,98735.72
2023-03-15T21:35:22.305Z,98740.53
2023-03-15T21:37:48.736Z,98737.84
2023-03-15T21:40:15.302Z,98737.34
2023-03-15T21:42:42.675Z,98736.25
2023-03-15T21:45:09.557Z,98740.00
2023-03-15T21:47:36.740Z,98742.13
2023-03-15T21:50:03.066Z,98740.00
2023-03-15T21:52:29.427Z,98743.22
2023-03-15T21:54:55.853Z,98744.28
2023-03-15T21:57:22.451Z,98742.94
2023-03-15T21:59:49.467Z,98746.97
2023-03-15T22:02:16.649Z,98742.13
2023-03-15T22:04:43.352Z,98742.41
2023-03-15T22:07:11.004Z,98738.66
2023-03-15T22:09:38.029Z,98740.00
2023-03-15T22:12:04.936Z,98740.00
2023-03-15T22:14:31.274Z,98737.88
2023-03-15T22:16:57.638Z,98749.84
2023-03-15T22:19:24.016Z,98746.69
2023-03-15T22:21:50.328Z,98743.47
2023-03-15T22:24:16.648Z,98750.69
2023-03-15T22:26:43.073Z,98748.81
2023-03-15T22:29:09.528Z,98746.09
2023-03-15T22:31:38.086Z,98746.66
2023-03-15T22:34:05.149Z,98741.25
2023-03-15T22:36:33.733Z,98746.38
2023-03-15T22:39:00.901Z,98749.56
2023-03-15T22:41:27.299Z,98748.47
2023-03-15T22:43:54.810Z,98740.72
2023-03-15T22:46:21.219Z,98741.00
2023-03-15T22:48:47.575Z,98749.53
2023-03-15T22:51:14.705Z,98753.53
2023-03-15T22:53:41.035Z,98756.22
2023-03-15T22:56:07.396Z,98761.03
2023-03-15T22:58:33.879Z,98755.94
2023-03-15T23:01:00.202Z,98761.00
2023-03-15T23:03:26.610Z,98758.56
2023-03-15T23:05:53.397Z,98756.72
2023-03-15T23:08:19.959Z,98756.97
2023-03-15T23:10:46.273Z,98758.31
2023-03-15T23:13:12.604Z,98755.09
2023-03-15T23:15:38.949Z,98752.69
2023-03-15T23:18:05.447Z,98760.19
2023-03-15T23:20:31.769Z,98758.00
2023-03-15T23:22:58.271Z,98762.81
2023-03-15T23:25:24.759Z,98762.28
2023-03-15T23:27:51.160Z,98756.63
2023-03-15T23:30:17.479Z,98760.66
2023-03-15T23:32:43.889Z,98758.22
2023-03-15T23:35:12.119Z,98767.31
2023-03-15T23:37:39.010Z,98777.19
2023-03-15T23:40:12.695Z,98775.00
2023-03-15T23:42:39.253Z,98771.81
2023-03-15T23:45:05.899Z,98769.13
2023-03-15T23:47:32.234Z,98766.97
2023-03-15T23:49:58.587Z,98764.31
2023-03-15T23:52:25.853Z,98767.25
2023-03-15T23:54:53.782Z,98778.19
2023-03-15T23:57:20.092Z,98781.38
2023-03-15T23:59:46.428Z,98779.47
